createdAt,value
2023-05-17T00:00:19.679Z,37.31
2023-05-17T00:05:21.644Z,37.07
2023-05-17T00:10:23.628Z,36.87
2023-05-17T00:15:25.661Z,36.91
2023-05-17T00:20:27.798Z,37.19
2023-05-17T00:25:30.358Z,37.09
2023-05-17T00:30:32.472Z,37.13
2023-05-17T00:35:34.517Z,37.11
2023-05-17T00:40:36.509Z,36.87
2023-05-17T00:45:38.368Z,37.19
2023-05-17T00:50:40.388Z,37.10
2023-05-17T00:55:46.171Z,37.16
2023-05-17T01:00:48.886Z,37.05
2023-05-17T01:05:51.924Z,36.95
2023-05-17T01:11:16.685Z,37.22
2023-05-17T01:16:33.637Z,37.18
2023-05-17T01:21:57.648Z,37.05
2023-05-17T01:27:00.872Z,37.35
2023-05-17T01:32:03.823Z,37.35
2023-05-17T01:37:05.683Z,36.92
2023-05-17T01:42:14.001Z,37.12
2023-05-17T01:47:30.353Z,37.15
2023-05-17T01:52:55.476Z,37.44
2023-05-17T01:57:58.037Z,37.12
2023-05-17T02:03:00.175Z,37.08
2023-05-17T02:08:02.230Z,37.35
2023-05-17T02:13:04.483Z,37.10
2023-05-17T02:18:07.120Z,37.07
2023-05-17T02:23:09.185Z,37.39
2023-05-17T02:28:11.240Z,37.38
2023-05-17T02:33:13.471Z,37.34
2023-05-17T02:38:16.232Z,37.31
2023-05-17T02:43:18.063Z,37.36
2023-05-17T02:48:19.974Z,37.17
2023-05-17T02:53:21.908Z,37.00
2023-05-17T02:58:25.248Z,37.08
2023-05-17T03:03:27.408Z,37.10
2023-05-17T03:08:29.361Z,37.33
2023-05-17T03:13:31.776Z,37.21
2023-05-17T03:18:33.953Z,37.45
2023-05-17T03:23:36.055Z,37.33
2023-05-17T03:28:38.203Z,37.21
2023-05-17T03:33:40.485Z,37.52
2023-05-17T03:38:42.576Z,37.27
2023-05-17T03:43:44.493Z,37.26
2023-05-17T03:48:46.465Z,37.22
2023-05-17T03:53:48.442Z,37.25
2023-05-17T03:58:50.583Z,37.50
2023-05-17T04:03:52.824Z,37.42
2023-05-17T04:08:55.444Z,37.34
2023-05-17T04:13:57.326Z,37.49
2023-05-17T04:19:00.745Z,37.36
2023-05-17T04:24:02.836Z,37.71
2023-05-17T04:29:04.765Z,37.40
2023-05-17T04:34:06.744Z,37.45
2023-05-17T04:39:08.771Z,37.40
2023-05-17T04:44:10.875Z,37.41
2023-05-17T04:49:13.191Z,37.29
2023-05-17T04:54:15.228Z,37.48
2023-05-17T04:59:17.061Z,37.29
2023-05-17T05:04:19.372Z,37.66
2023-05-17T05:09:21.445Z,37.58
2023-05-17T05:14:23.379Z,37.45
2023-05-17T05:19:25.476Z,37.54
2023-05-17T05:24:27.642Z,37.48
2023-05-17T05:29:29.556Z,37.55
2023-05-17T05:34:31.900Z,37.30
2023-05-17T05:39:33.763Z,37.19
2023-05-17T05:44:35.933Z,37.66
2023-05-17T05:49:37.893Z,37.63
2023-05-17T05:54:39.876Z,37.64
2023-05-17T05:59:41.850Z,37.70
2023-05-17T06:04:45.511Z,37.47
2023-05-17T06:09:47.939Z,37.43
2023-05-17T06:14:50.516Z,37.41
2023-05-17T06:19:52.900Z,37.79
2023-05-17T06:24:54.776Z,37.99
2023-05-17T06:29:56.792Z,37.83
2023-05-17T06:34:58.665Z,37.74
2023-05-17T06:40:16.114Z,37.82
2023-05-17T06:45:18.971Z,38.06
2023-05-17T06:50:20.847Z,38.10
2023-05-17T06:55:22.761Z,38.04
2023-05-17T07:00:24.924Z,38.06
2023-05-17T07:05:29.037Z,37.86
2023-05-17T07:10:31.246Z,37.88
2023-05-17T07:15:33.198Z,37.78
2023-05-17T07:20:35.180Z,37.98
2023-05-17T07:25:40.818Z,37.87
2023-05-17T07:30:42.788Z,37.87
2023-05-17T07:35:44.807Z,38.11
2023-05-17T07:40:46.625Z,37.94
2023-05-17T07:45:48.496Z,37.77
2023-05-17T07:50:52.445Z,37.74
2023-05-17T07:55:54.383Z,37.50
2023-05-17T08:00:56.494Z,37.58
2023-05-17T08:05:58.500Z,37.55
2023-05-17T08:11:00.690Z,37.45
2023-05-17T08:16:12.904Z,37.77
2023-05-17T08:21:16.457Z,37.60
2023-05-17T08:26:19.193Z,37.33
2023-05-17T08:31:21.250Z,37.47
2023-05-17T08:36:23.287Z,37.88
2023-05-17T08:41:25.230Z,36.69
2023-05-17T08:46:28.585Z,36.83
2023-05-17T08:51:32.823Z,36.76
2023-05-17T08:56:39.686Z,36.54
2023-05-17T09:01:44.121Z,36.81
2023-05-17T09:06:46.172Z,36.58
2023-05-17T09:11:48.323Z,36.53
2023-05-17T09:17:00.422Z,36.65
2023-05-17T09:22:04.770Z,36.78
2023-05-17T09:27:06.657Z,35.19
2023-05-17T09:32:17.234Z,34.75
2023-05-17T09:37:20.318Z,34.43
2023-05-17T09:42:26.654Z,34.92
2023-05-17T09:47:30.794Z,34.40
2023-05-17T09:52:35.943Z,34.45
2023-05-17T09:57:39.644Z,34.58
2023-05-17T10:02:47.313Z,33.52
2023-05-17T10:07:51.016Z,33.05
2023-05-17T10:12:53.992Z,33.27
2023-05-17T10:17:56.468Z,33.16
2023-05-17T10:22:59.433Z,33.17
2023-05-17T10:28:01.800Z,33.53
2023-05-17T10:33:04.964Z,33.66
2023-05-17T10:38:07.071Z,33.40
2023-05-17T10:43:11.013Z,33.80
2023-05-17T10:48:15.968Z,33.85
2023-05-17T10:53:18.079Z,33.58
2023-05-17T10:58:21.413Z,33.75
2023-05-17T11:03:30.946Z,33.79
2023-05-17T11:08:33.445Z,33.79
2023-05-17T11:13:35.566Z,33.64
2023-05-17T11:18:47.301Z,33.47
2023-05-17T11:23:56.678Z,33.15
2023-05-17T11:29:18.132Z,32.55
2023-05-17T11:34:23.710Z,32.58
2023-05-17T11:39:26.631Z,32.36
2023-05-17T11:44:33.558Z,32.56
2023-05-17T11:49:38.626Z,32.61
2023-05-17T11:54:43.265Z,32.46
2023-05-17T11:59:45.260Z,32.41
2023-05-17T12:04:47.355Z,32.57
2023-05-17T12:09:49.552Z,32.71
2023-05-17T12:14:51.657Z,32.12
2023-05-17T12:19:55.470Z,31.88
2023-05-17T12:24:57.458Z,31.42
2023-05-17T12:29:59.393Z,31.31
2023-05-17T12:35:02.229Z,31.13
2023-05-17T12:40:05.481Z,31.37
2023-05-17T12:45:07.842Z,31.44
2023-05-17T12:50:10.422Z,31.65
2023-05-17T12:55:13.611Z,32.14
2023-05-17T13:00:16.401Z,32.02
2023-05-17T13:05:19.221Z,32.28
2023-05-17T13:10:29.055Z,32.19
2023-05-17T13:15:33.008Z,32.52
2023-05-17T13:20:34.913Z,32.75
2023-05-17T13:25:39.564Z,32.65
2023-05-17T13:30:41.841Z,30.76
2023-05-17T13:35:44.109Z,30.69
2023-05-17T13:40:46.901Z,30.67
2023-05-17T13:45:54.661Z,30.23
2023-05-17T13:50:57.164Z,30.64
2023-05-17T13:55:59.185Z,30.59
2023-05-17T14:01:01.102Z,30.45
2023-05-17T14:06:04.507Z,30.40
2023-05-17T14:11:06.801Z,29.95
2023-05-17T14:16:08.723Z,30.01
2023-05-17T14:21:10.785Z,29.99
2023-05-17T14:26:12.787Z,30.14
2023-05-17T14:31:14.713Z,30.17
2023-05-17T14:36:16.648Z,29.80
2023-05-17T14:41:18.815Z,29.84
2023-05-17T14:46:20.851Z,30.08
2023-05-17T14:51:23.302Z,30.13
2023-05-17T14:56:25.801Z,29.94
2023-05-17T15:01:28.213Z,29.92
2023-05-17T15:06:30.468Z,29.93
2023-05-17T15:11:32.353Z,30.09
2023-05-17T15:16:35.129Z,30.12
2023-05-17T15:21:37.390Z,29.98
2023-05-17T15:26:39.621Z,30.28
2023-05-17T15:31:41.569Z,30.22
2023-05-17T15:36:43.491Z,30.15
2023-05-17T15:41:45.818Z,29.80
2023-05-17T15:46:47.679Z,29.64
2023-05-17T15:51:49.494Z,29.40
2023-05-17T15:56:51.346Z,29.25
2023-05-17T16:01:53.378Z,29.28
2023-05-17T16:06:55.348Z,29.12
2023-05-17T16:11:57.358Z,29.58
2023-05-17T16:16:59.292Z,29.74
2023-05-17T16:22:02.814Z,29.89
2023-05-17T16:27:07.173Z,30.26
2023-05-17T16:32:10.040Z,30.25
2023-05-17T16:42:26.281Z,30.72
2023-05-17T16:47:28.425Z,31.00
2023-05-17T16:52:30.538Z,31.19
2023-05-17T16:57:32.483Z,31.66
2023-05-17T17:02:34.478Z,31.80
2023-05-17T17:07:36.522Z,31.99
2023-05-17T17:12:38.463Z,32.12
2023-05-17T17:17:40.449Z,32.28
2023-05-17T17:22:42.415Z,32.54
2023-05-17T17:27:44.379Z,32.66
2023-05-17T17:32:46.581Z,32.83
2023-05-17T17:37:48.786Z,33.02
2023-05-17T17:42:50.906Z,32.92
2023-05-17T17:47:52.939Z,33.12
2023-05-17T17:52:54.917Z,33.42
2023-05-17T17:57:56.797Z,33.29
2023-05-17T18:03:01.944Z,33.53
2023-05-17T18:08:04.124Z,33.42
2023-05-17T18:13:06.308Z,33.50
2023-05-17T18:18:08.445Z,33.41
2023-05-17T18:23:10.628Z,33.51
2023-05-17T18:28:12.675Z,33.41
2023-05-17T18:33:14.810Z,33.81
2023-05-17T18:38:17.042Z,33.69
2023-05-17T18:43:19.221Z,33.94
2023-05-17T18:48:22.403Z,33.75
2023-05-17T18:53:24.481Z,33.67
2023-05-17T18:58:26.385Z,34.04
2023-05-17T19:03:28.752Z,33.90
2023-05-17T19:08:30.613Z,33.81
2023-05-17T19:13:33.177Z,34.07
2023-05-17T19:18:35.042Z,33.85
2023-05-17T19:23:37.129Z,33.87
2023-05-17T19:28:40.230Z,33.83
2023-05-17T19:33:42.067Z,33.87
2023-05-17T19:38:44.020Z,33.96
2023-05-17T19:43:46.207Z,34.26
2023-05-17T19:48:48.143Z,34.13
2023-05-17T19:53:53.972Z,34.37
2023-05-17T19:58:56.380Z,34.44
2023-05-17T20:03:58.468Z,34.31
2023-05-17T20:09:00.408Z,34.49
2023-05-17T20:14:02.463Z,34.71
2023-05-17T20:19:04.506Z,34.60
2023-05-17T20:24:07.192Z,34.84
2023-05-17T20:29:09.240Z,34.53
2023-05-17T20:34:11.328Z,34.81
2023-05-17T20:39:15.505Z,34.93
2023-05-17T20:44:19.208Z,35.08
2023-05-17T20:49:21.448Z,35.58
2023-05-17T20:54:25.663Z,35.77
2023-05-17T20:59:27.729Z,35.91
2023-05-17T21:04:29.648Z,35.96
2023-05-17T21:09:32.934Z,35.76
2023-05-17T21:14:34.891Z,35.69
2023-05-17T21:19:36.768Z,35.77
2023-05-17T21:24:38.686Z,35.65
2023-05-17T21:29:40.523Z,35.73
2023-05-17T21:34:43.561Z,35.75
2023-05-17T21:39:45.632Z,35.53
2023-05-17T21:44:47.747Z,35.45
2023-05-17T21:49:50.047Z,35.41
2023-05-17T21:54:51.938Z,35.75
2023-05-17T21:59:53.854Z,35.76
2023-05-17T22:04:55.738Z,35.48
2023-05-17T22:09:58.580Z,35.43
2023-05-17T22:15:01.822Z,35.48
2023-05-17T22:20:04.228Z,35.45
2023-05-17T22:25:07.102Z,35.45
2023-05-17T22:30:09.230Z,35.61
2023-05-17T22:35:11.290Z,35.45
2023-05-17T22:40:13.442Z,35.42
2023-05-17T22:45:15.732Z,35.44
2023-05-17T22:50:19.433Z,35.82
2023-05-17T22:55:21.579Z,35.41
2023-05-17T23:00:24.589Z,35.79
2023-05-17T23:05:26.702Z,35.67
2023-05-17T23:10:28.676Z,35.72
2023-05-17T23:15:34.363Z,35.62
2023-05-17T23:20:36.432Z,35.77
2023-05-17T23:25:38.558Z,35.83
2023-05-17T23:30:40.922Z,35.56
2023-05-17T23:35:42.898Z,35.78
2023-05-17T23:40:44.949Z,35.80
2023-05-17T23:45:47.273Z,35.74
2023-05-17T23:50:49.463Z,35.61
2023-05-17T23:55:51.572Z,35.71
